Time;durP1;ratioP1;P1;durP2;ratioP2;P2;SDS_P1;SDS_P2;PMS_P1;PMS_P2;Temp;Humidity;BMP_temperature;BMP_pressure;BME280_temperature;BME280_humidity;BME280_pressure;Samples;Min_cycle;Max_cycle;Signal;HPM_P1;HPM_P2
2021/10/23 00:02:11;;;;;;;5.03;1.23;;;;;;;7.02;59.25;98169.97;6192092;28;20205;-73
2021/10/23 00:05:13;;;;;;;2.23;1.20;;;;;;;7.11;58.61;98180.88;6205591;28;20203;-73
2021/10/23 00:08:15;;;;;;;3.33;1.00;;;;;;;7.11;58.40;98165.97;6192023;28;20227;-73
2021/10/23 00:11:17;;;;;;;3.37;1.20;;;;;;;7.10;58.56;98182.63;6184023;28;20518;-73
2021/10/23 00:14:19;;;;;;;2.50;1.10;;;;;;;7.06;58.96;98190.81;6199799;28;20202;-73
2021/10/23 00:17:21;;;;;;;2.50;1.03;;;;;;;6.99;59.68;98192.91;6189774;28;20218;-73
2021/10/23 00:20:24;;;;;;;3.57;1.10;;;;;;;6.95;59.38;98194.88;6208585;28;20324;-74
2021/10/23 00:23:26;;;;;;;3.53;1.20;;;;;;;6.95;58.60;98210.63;6212033;28;20195;-73
2021/10/23 00:26:29;;;;;;;5.00;1.50;;;;;;;6.99;58.00;98199.00;6212847;28;22084;-73
2021/10/23 00:29:31;;;;;;;4.63;1.20;;;;;;;6.98;58.46;98202.59;6208467;28;20241;-73
2021/10/23 00:32:33;;;;;;;5.03;1.40;;;;;;;7.02;58.52;98198.00;6207056;28;20199;-73
2021/10/23 00:35:35;;;;;;;3.73;1.40;;;;;;;6.97;59.06;98207.91;6207115;28;20199;-73
2021/10/23 00:38:37;;;;;;;3.83;1.57;;;;;;;6.97;58.28;98215.78;6210554;28;20212;-73
2021/10/23 00:41:41;;;;;;;6.87;1.57;;;;;;;7.01;58.79;98206.78;6210130;28;20196;-73
2021/10/23 00:44:43;;;;;;;3.57;1.30;;;;;;;6.99;58.49;98209.50;6209902;28;21067;-73
2021/10/23 00:47:46;;;;;;;2.07;1.20;;;;;;;6.93;59.07;98201.16;6210758;28;20189;-73
2021/10/23 00:50:48;;;;;;;6.77;1.37;;;;;;;6.86;60.77;98210.31;6205793;28;20794;-74
2021/10/23 00:53:50;;;;;;;3.50;1.37;;;;;;;6.80;60.42;98205.38;6207644;28;20981;-73
2021/10/23 00:56:52;;;;;;;4.20;1.30;;;;;;;6.74;61.07;98206.59;6208841;28;20214;-74
2021/10/23 00:59:54;;;;;;;3.20;1.30;;;;;;;6.74;60.73;98190.84;6211515;28;20570;-73
2021/10/23 01:02:56;;;;;;;4.33;1.30;;;;;;;6.73;61.25;98193.56;6198256;28;20205;-73
2021/10/23 01:05:58;;;;;;;3.50;1.57;;;;;;;6.66;62.24;98193.91;6215356;28;20587;-74
2021/10/23 01:09:00;;;;;;;4.97;1.30;;;;;;;6.69;61.53;98189.44;6196611;28;20197;-74
2021/10/23 01:12:08;;;;;;;6.70;1.47;;;;;;;6.66;62.01;98203.56;6215413;28;20205;-73
2021/10/23 01:15:18;;;;;;;3.23;1.10;;;;;;;6.58;62.67;98193.50;6217171;28;20519;-73
2021/10/23 01:18:20;;;;;;;3.93;1.63;;;;;;;6.62;62.21;98191.53;6197310;28;20231;-73
2021/10/23 01:21:23;;;;;;;2.73;1.20;;;;;;;6.55;63.10;98211.19;6198616;28;20286;-73
2021/10/23 01:24:25;;;;;;;4.17;1.20;;;;;;;6.54;62.61;98199.00;6215878;28;20200;-73
2021/10/23 01:27:27;;;;;;;5.20;1.60;;;;;;;6.52;62.51;98195.63;6213399;28;20583;-73
2021/10/23 01:30:29;;;;;;;2.93;1.50;;;;;;;6.47;61.84;98198.50;6214216;28;20245;-73
2021/10/23 01:33:31;;;;;;;3.00;1.23;;;;;;;6.50;62.40;98203.56;6215666;28;20800;-74
2021/10/23 01:36:33;;;;;;;5.07;1.30;;;;;;;6.55;61.55;98203.31;6213263;28;20275;-73
2021/10/23 01:39:35;;;;;;;5.40;1.40;;;;;;;6.58;61.63;98209.25;6214131;28;20227;-73
2021/10/23 01:42:37;;;;;;;3.20;1.07;;;;;;;6.58;61.15;98200.53;6214583;28;20682;-73
2021/10/23 01:45:39;;;;;;;1.90;0.90;;;;;;;6.54;61.99;98214.72;6190584;28;20201;-74
2021/10/23 01:48:41;;;;;;;4.83;1.53;;;;;;;6.55;61.67;98204.16;6212428;28;20904;-74
2021/10/23 01:51:43;;;;;;;5.03;1.30;;;;;;;6.55;61.85;98206.78;6214599;28;20208;-73
2021/10/23 01:54:45;;;;;;;4.60;1.50;;;;;;;6.62;61.06;98209.91;6212937;28;20199;-73
2021/10/23 01:57:47;;;;;;;4.73;0.93;;;;;;;6.63;61.50;98216.84;6213308;28;20211;-73
2021/10/23 02:00:49;;;;;;;3.90;1.13;;;;;;;6.66;61.92;98219.31;6212137;28;20196;-73
2021/10/23 02:03:52;;;;;;;3.53;1.30;;;;;;;6.73;61.23;98225.03;6212392;28;21067;-73
2021/10/23 02:06:54;;;;;;;4.93;1.23;;;;;;;6.77;60.92;98231.81;6193775;28;20193;-73
2021/10/23 02:09:56;;;;;;;4.03;1.27;;;;;;;6.80;60.96;98223.75;6214491;28;20268;-73
2021/10/23 02:12:59;;;;;;;4.47;1.60;;;;;;;6.85;61.20;98232.22;6215028;28;20246;-73
2021/10/23 02:16:01;;;;;;;6.83;1.57;;;;;;;6.85;60.77;98232.22;6196588;28;20203;-72
2021/10/23 02:19:03;;;;;;;4.33;1.40;;;;;;;6.86;61.02;98236.53;6197338;28;20306;-72
2021/10/23 02:22:05;;;;;;;3.73;1.47;;;;;;;6.82;62.25;98228.00;6214806;28;20217;-72
2021/10/23 02:25:09;;;;;;;4.00;1.10;;;;;;;6.77;62.47;98226.56;6213146;28;20204;-73
2021/10/23 02:28:11;;;;;;;6.40;1.43;;;;;;;6.78;61.35;98233.50;6213578;28;20310;-73
2021/10/23 02:31:13;;;;;;;6.53;1.43;;;;;;;6.75;61.29;98221.41;6214185;28;20899;-72
2021/10/23 02:34:15;;;;;;;2.90;1.33;;;;;;;6.73;60.73;98225.88;6195041;28;20200;-73
2021/10/23 02:37:17;;;;;;;5.57;1.60;;;;;;;6.73;61.33;98241.63;6208196;28;20707;-72
2021/10/23 02:40:19;;;;;;;4.60;1.60;;;;;;;6.75;61.04;98236.28;6208395;28;20199;-73
2021/10/23 02:43:21;;;;;;;4.20;1.30;;;;;;;6.77;60.28;98221.31;6214324;28;20211;-72
2021/10/23 02:46:23;;;;;;;4.47;1.27;;;;;;;6.73;60.52;98225.88;6212516;28;20693;-73
2021/10/23 02:49:26;;;;;;;6.10;1.50;;;;;;;6.71;60.47;98227.75;6213092;28;20569;-72
2021/10/23 02:52:28;;;;;;;2.17;1.23;;;;;;;6.67;61.38;98226.25;6214086;28;20586;-73
2021/10/23 02:55:30;;;;;;;5.17;1.67;;;;;;;6.63;61.26;98233.44;6193960;28;20197;-72
2021/10/23 02:58:32;;;;;;;7.30;1.50;;;;;;;6.62;61.56;98238.75;6213736;28;20225;-73
2021/10/23 03:01:35;;;;;;;2.90;1.30;;;;;;;6.55;61.56;98253.13;6195563;28;20194;-73
2021/10/23 03:04:38;;;;;;;6.40;1.30;;;;;;;6.58;61.57;98240.72;6206142;28;20193;-73
2021/10/23 03:07:40;;;;;;;3.37;1.30;;;;;;;6.54;61.51;98247.03;6213702;28;20190;-73
2021/10/23 03:10:43;;;;;;;4.70;1.10;;;;;;;6.47;61.92;98252.72;6207965;28;20279;-73
2021/10/23 03:13:45;;;;;;;5.43;1.40;;;;;;;6.37;63.13;98259.38;6210959;28;20216;-72
2021/10/23 03:16:46;;;;;;;2.77;1.33;;;;;;;6.33;62.99;98284.91;6212410;28;20204;-73
2021/10/23 03:19:49;;;;;;;5.83;1.30;;;;;;;6.49;62.29;98303.31;6212683;28;20199;-72
2021/10/23 03:22:52;;;;;;;5.07;1.40;;;;;;;6.49;62.17;98298.06;6214111;28;20189;-72
2021/10/23 03:25:54;;;;;;;3.90;1.40;;;;;;;6.54;62.65;98289.00;6211411;28;20195;-72
2021/10/23 03:28:57;;;;;;;4.73;1.80;;;;;;;6.58;62.51;98289.69;6208625;28;20215;-73
2021/10/23 03:31:59;;;;;;;2.40;1.10;;;;;;;6.56;62.51;98294.16;6194776;28;20268;-73
2021/10/23 03:35:01;;;;;;;4.57;1.30;;;;;;;6.52;62.85;98292.63;6211515;28;20205;-73
2021/10/23 03:38:03;;;;;;;4.97;1.37;;;;;;;6.58;63.00;98287.06;6191582;28;20583;-73
2021/10/23 03:41:05;;;;;;;6.27;1.97;;;;;;;6.61;62.40;98305.22;6212352;28;20323;-72
2021/10/23 03:44:07;;;;;;;2.90;1.33;;;;;;;6.68;62.56;98297.91;6209979;28;20339;-73
2021/10/23 03:47:10;;;;;;;5.10;1.50;;;;;;;6.72;62.09;98310.75;6212524;28;20665;-72
2021/10/23 03:50:13;;;;;;;3.00;1.20;;;;;;;6.78;61.92;98317.44;6194912;28;20604;-73
2021/10/23 03:53:15;;;;;;;2.83;1.23;;;;;;;6.81;62.23;98319.88;6212401;28;20658;-73
2021/10/23 03:56:17;;;;;;;5.33;1.53;;;;;;;6.85;62.09;98337.16;6213139;28;20256;-73
2021/10/23 03:59:20;;;;;;;4.63;1.50;;;;;;;6.87;62.35;98330.06;6212831;28;20200;-73
2021/10/23 04:02:23;;;;;;;6.43;2.23;;;;;;;6.88;62.11;98331.75;6212168;28;20197;-73
2021/10/23 04:05:25;;;;;;;3.77;1.40;;;;;;;6.89;61.76;98336.91;6208348;28;20218;-73
2021/10/23 04:08:27;;;;;;;2.83;1.37;;;;;;;6.90;61.59;98338.59;6192884;28;20201;-73
2021/10/23 04:11:29;;;;;;;5.30;1.40;;;;;;;6.92;61.70;98334.13;6211694;28;20313;-73
2021/10/23 04:14:31;;;;;;;2.80;1.50;;;;;;;6.91;62.06;98337.66;6212911;28;20574;-73
2021/10/23 04:17:33;;;;;;;2.87;1.00;;;;;;;6.92;62.14;98341.13;6176907;28;20230;-72
2021/10/23 04:20:35;;;;;;;2.47;1.23;;;;;;;6.89;62.33;98343.91;6211839;28;20206;-73
2021/10/23 04:23:37;;;;;;;6.17;1.20;;;;;;;6.88;62.50;98348.34;6211104;28;20551;-73
2021/10/23 04:26:39;;;;;;;4.37;1.40;;;;;;;6.88;62.38;98342.25;6210730;28;20200;-73
2021/10/23 04:29:41;;;;;;;3.00;1.67;;;;;;;6.86;62.35;98352.81;6210453;28;20739;-73
2021/10/23 04:32:43;;;;;;;7.07;1.40;;;;;;;6.87;62.24;98356.31;6210252;28;20224;-72
2021/10/23 04:35:45;;;;;;;3.47;1.33;;;;;;;6.89;61.75;98360.50;6210610;28;20201;-72
2021/10/23 04:38:47;;;;;;;3.90;1.60;;;;;;;6.87;63.10;98348.44;6200643;28;20212;-73
2021/10/23 04:41:49;;;;;;;3.33;1.67;;;;;;;6.89;61.41;98367.53;6203829;28;21122;-72
2021/10/23 04:44:51;;;;;;;3.77;1.33;;;;;;;6.90;61.93;98354.34;6209093;28;20864;-73
2021/10/23 04:47:53;;;;;;;3.03;1.60;;;;;;;6.91;62.25;98356.03;6211579;28;20381;-73
2021/10/23 04:50:55;;;;;;;3.17;1.20;;;;;;;6.91;62.22;98366.53;6206376;28;20261;-72
2021/10/23 04:53:57;;;;;;;5.80;1.50;;;;;;;6.88;63.03;98358.84;6212091;28;20200;-72
2021/10/23 04:56:59;;;;;;;3.00;1.60;;;;;;;6.91;62.19;98360.44;6211531;28;20206;-72
2021/10/23 05:00:02;;;;;;;3.07;1.53;;;;;;;6.91;62.99;98376.16;6197169;28;20244;-73
2021/10/23 05:03:04;;;;;;;3.00;1.60;;;;;;;6.89;62.44;98370.16;6214977;28;20186;-73
2021/10/23 05:06:06;;;;;;;3.53;1.40;;;;;;;6.89;63.22;98368.38;6211332;28;20207;-72
2021/10/23 05:09:08;;;;;;;5.60;1.87;;;;;;;6.89;62.46;98371.00;6184523;28;20209;-73
2021/10/23 05:12:10;;;;;;;5.43;2.00;;;;;;;6.89;62.36;98367.53;6214643;28;20280;-73
2021/10/23 05:15:12;;;;;;;3.23;1.60;;;;;;;6.89;62.68;98376.25;6214527;28;20333;-72
2021/10/23 05:18:14;;;;;;;4.43;1.80;;;;;;;6.91;62.68;98384.03;6188893;28;20305;-72
2021/10/23 05:21:18;;;;;;;3.90;1.60;;;;;;;6.89;62.77;98373.63;6213059;28;20191;-73
2021/10/23 05:24:21;;;;;;;4.17;1.67;;;;;;;6.88;63.12;98389.47;6214020;28;20237;-72
2021/10/23 05:27:23;;;;;;;4.20;1.40;;;;;;;6.88;63.84;98386.84;6210560;28;20201;-72
2021/10/23 05:30:25;;;;;;;3.50;1.40;;;;;;;6.87;63.68;98385.16;6212509;28;20667;-72
2021/10/23 05:33:27;;;;;;;4.77;1.57;;;;;;;6.87;63.33;98383.38;6213357;28;20290;-73
2021/10/23 05:36:29;;;;;;;7.77;1.70;;;;;;;6.88;63.66;98399.97;6193897;28;20576;-73
2021/10/23 05:39:31;;;;;;;4.57;1.20;;;;;;;6.90;63.27;98400.72;6206099;28;20209;-72
2021/10/23 05:42:33;;;;;;;4.20;1.60;;;;;;;6.92;63.17;98398.84;6203532;28;20193;-72
2021/10/23 05:45:35;;;;;;;2.93;1.23;;;;;;;6.93;63.72;98413.69;6208155;28;20280;-72
2021/10/23 05:48:37;;;;;;;5.00;1.43;;;;;;;6.93;63.37;98416.28;6205132;28;20194;-72
2021/10/23 05:51:39;;;;;;;5.53;1.90;;;;;;;6.94;63.80;98418.84;6206029;28;20836;-72
2021/10/23 05:54:41;;;;;;;1.47;1.17;;;;;;;6.96;63.16;98429.25;6209434;28;20209;-72
2021/10/23 05:57:43;;;;;;;2.90;1.50;;;;;;;6.99;63.10;98434.31;6198304;28;20226;-73
2021/10/23 06:00:54;;;;;;;5.60;1.60;;;;;;;7.00;63.46;98430.78;6205491;28;20203;-73
2021/10/23 06:03:56;;;;;;;4.70;2.00;;;;;;;7.00;63.56;98433.41;6207774;28;20186;-71
2021/10/23 06:06:58;;;;;;;2.97;1.77;;;;;;;7.04;63.80;98432.31;6202882;28;20188;-71
2021/10/23 06:10:03;;;;;;;2.87;1.50;;;;;;;7.06;64.08;98448.84;6207879;28;20192;-70
2021/10/23 06:13:05;;;;;;;4.57;1.87;;;;;;;7.09;63.87;98450.44;6189717;28;20763;-70
2021/10/23 06:16:07;;;;;;;5.33;1.90;;;;;;;7.08;63.59;98457.47;6202520;28;20202;-70
2021/10/23 06:19:09;;;;;;;3.90;1.73;;;;;;;7.11;62.99;98470.41;6187966;28;20223;-73
2021/10/23 06:22:12;;;;;;;5.50;2.30;;;;;;;7.15;63.03;98463.22;6128961;28;20714;-71
2021/10/23 06:25:17;;;;;;;4.77;1.70;;;;;;;7.16;63.63;98464.94;6151133;28;20211;-71
2021/10/23 06:28:19;;;;;;;6.27;1.70;;;;;;;7.19;63.25;98468.22;6159921;28;20198;-73
2021/10/23 06:31:21;;;;;;;5.87;1.93;;;;;;;7.21;63.72;98476.88;6143250;28;20258;-73
2021/10/23 06:34:23;;;;;;;2.50;1.33;;;;;;;7.25;63.57;98482.81;6146539;28;20281;-74
2021/10/23 06:37:25;;;;;;;6.90;1.90;;;;;;;7.31;62.76;98482.47;6162589;28;20196;-75
2021/10/23 06:40:27;;;;;;;3.00;1.90;;;;;;;7.32;63.87;98494.66;6159479;28;20188;-71
2021/10/23 06:43:28;;;;;;;7.10;2.20;;;;;;;7.35;63.87;98505.88;6162599;28;20212;-73
2021/10/23 06:46:30;;;;;;;6.53;1.73;;;;;;;7.38;64.05;98504.84;6300207;23;20264;-67
2021/10/23 06:49:32;;;;;;;6.37;1.63;;;;;;;7.40;64.19;98511.69;6190456;28;20183;-70
2021/10/23 06:52:35;;;;;;;5.53;1.93;;;;;;;7.44;64.10;98515.00;6193031;28;20189;-65
2021/10/23 06:55:37;;;;;;;3.77;1.40;;;;;;;7.48;64.85;98516.56;6194289;28;20198;-67
2021/10/23 06:58:39;;;;;;;4.57;2.30;;;;;;;7.53;66.47;98530.28;6188861;28;20223;-68
2021/10/23 07:01:41;;;;;;;10.30;2.80;;;;;;;7.59;66.61;98531.69;6185898;28;20197;-69
2021/10/23 07:04:43;;;;;;;4.40;1.60;;;;;;;7.65;65.78;98537.50;6188250;28;20268;-68
2021/10/23 07:07:45;;;;;;;7.73;1.97;;;;;;;7.71;65.33;98531.03;6185890;28;20200;-66
2021/10/23 07:10:47;;;;;;;8.77;2.00;;;;;;;7.78;65.36;98535.88;6182461;28;20224;-69
2021/10/23 07:13:49;;;;;;;4.23;1.90;;;;;;;7.85;65.25;98539.00;6182130;28;20203;-67
2021/10/23 07:16:51;;;;;;;19.07;8.37;;;;;;;7.85;64.20;98538.16;6175979;28;20193;-71
2021/10/23 07:19:53;;;;;;;20.77;9.30;;;;;;;7.95;64.08;98548.09;6176852;28;20239;-69
2021/10/23 07:22:56;;;;;;;11.63;3.03;;;;;;;8.01;63.99;98549.50;6177118;28;20684;-65
2021/10/23 07:25:58;;;;;;;8.57;2.07;;;;;;;8.09;63.36;98547.28;6180345;28;20690;-69
2021/10/23 07:29:00;;;;;;;2.80;1.60;;;;;;;8.18;63.88;98556.47;6176712;28;20220;-66
2021/10/23 07:32:03;;;;;;;7.07;5.27;;;;;;;8.23;63.52;98571.03;6180191;28;20201;-67
2021/10/23 07:35:07;;;;;;;10.93;5.13;;;;;;;8.28;63.06;98582.16;6184247;28;20284;-69
2021/10/23 07:38:09;;;;;;;4.20;1.80;;;;;;;8.34;62.27;98586.25;6181414;28;21196;-72
2021/10/23 07:41:11;;;;;;;4.73;2.13;;;;;;;8.41;62.74;98587.59;6181630;28;20224;-70
2021/10/23 07:44:14;;;;;;;24.80;3.67;;;;;;;8.50;62.13;98584.41;6184099;28;20208;-71
2021/10/23 07:47:17;;;;;;;29.03;4.40;;;;;;;8.61;63.08;98595.19;6190378;28;20242;-67
2021/10/23 07:50:21;;;;;;;8.60;2.80;;;;;;;8.54;61.20;98593.84;6199765;28;20786;-69
2021/10/23 07:53:22;;;;;;;7.70;1.90;;;;;;;8.63;61.98;98590.69;6203030;28;20185;-69
2021/10/23 07:56:24;;;;;;;6.20;2.17;;;;;;;8.72;62.63;98603.31;6199394;28;20196;-68
2021/10/23 07:59:26;;;;;;;8.30;1.73;;;;;;;8.78;61.26;98597.66;6179327;28;20217;-71
2021/10/23 08:02:28;;;;;;;6.50;1.67;;;;;;;8.72;61.07;98607.72;6201194;28;20199;-71
2021/10/23 08:05:33;;;;;;;9.23;2.50;;;;;;;8.73;60.82;98606.78;6205491;28;20512;-72
2021/10/23 08:08:36;;;;;;;2.10;1.57;;;;;;;8.86;60.30;98605.16;6196683;28;20271;-72
2021/10/23 08:11:41;;;;;;;3.37;1.53;;;;;;;8.94;61.02;98609.94;6191812;28;20200;-73
2021/10/23 08:14:43;;;;;;;6.40;1.80;;;;;;;8.96;60.66;98610.72;6206210;28;20189;-71
2021/10/23 08:17:44;;;;;;;3.20;1.53;;;;;;;8.99;61.18;98618.41;6180778;28;20709;-72
2021/10/23 08:20:47;;;;;;;3.63;1.77;;;;;;;8.98;61.20;98614.09;6206202;28;20243;-72
2021/10/23 08:23:49;;;;;;;4.93;2.10;;;;;;;8.69;61.04;98610.50;6203828;28;20196;-72
2021/10/23 08:26:51;;;;;;;6.83;2.00;;;;;;;8.42;61.65;98620.84;6188518;28;20340;-74
2021/10/23 08:29:54;;;;;;;3.03;2.03;;;;;;;8.28;61.99;98610.25;6197488;28;20229;-74
2021/10/23 08:33:00;;;;;;;6.10;1.97;;;;;;;8.39;61.69;98618.38;6199923;28;20198;-72
2021/10/23 08:36:02;;;;;;;3.87;1.53;;;;;;;8.55;62.03;98623.63;6190949;28;20209;-72
2021/10/23 08:39:06;;;;;;;6.93;2.10;;;;;;;8.63;61.83;98624.03;6207398;28;20210;-72
2021/10/23 08:42:09;;;;;;;5.33;1.90;;;;;;;8.69;62.21;98621.03;6205623;28;20890;-70
2021/10/23 08:45:15;;;;;;;4.77;1.90;;;;;;;8.75;62.19;98613.66;6186955;28;20225;-68
2021/10/23 08:48:17;;;;;;;4.30;1.77;;;;;;;8.87;61.83;98617.38;6208721;28;20826;-66
2021/10/23 08:51:25;;;;;;;5.17;1.80;;;;;;;9.09;60.77;98607.25;6206059;28;20189;-67
2021/10/23 08:54:28;;;;;;;3.53;1.87;;;;;;;9.38;60.32;98615.22;6206798;28;20203;-67
2021/10/23 08:57:30;;;;;;;4.63;1.90;;;;;;;9.66;59.92;98614.38;6203359;28;20207;-68
2021/10/23 09:00:32;;;;;;;3.67;1.53;;;;;;;9.81;59.18;98613.41;6196916;28;20207;-69
2021/10/23 09:03:35;;;;;;;7.37;2.37;;;;;;;9.98;59.21;98618.50;6198720;28;20187;-67
2021/10/23 09:06:40;;;;;;;3.30;1.83;;;;;;;10.16;58.04;98624.38;6195965;28;20260;-68
2021/10/23 09:09:59;;;;;;;2.47;1.40;;;;;;;10.51;57.26;98614.22;6205156;28;21609;-71
2021/10/23 09:13:04;;;;;;;5.50;2.57;;;;;;;10.62;56.59;98625.78;6201558;28;20209;-72
2021/10/23 09:16:18;;;;;;;5.33;2.10;;;;;;;10.61;56.84;98618.81;6207707;28;20204;-70
2021/10/23 09:19:20;;;;;;;5.20;2.13;;;;;;;10.41;56.15;98621.91;6179829;28;20308;-70
2021/10/23 09:22:38;;;;;;;3.53;1.67;;;;;;;10.43;56.25;98622.66;6207210;28;20588;-69
2021/10/23 09:25:42;;;;;;;4.00;1.80;;;;;;;10.64;56.35;98641.53;6203261;28;21068;-70
2021/10/23 09:28:44;;;;;;;2.53;1.47;;;;;;;10.65;56.03;98637.94;6198737;28;20327;-70
2021/10/23 09:31:50;;;;;;;3.97;1.63;;;;;;;10.82;55.92;98637.69;6174304;28;20202;-71
2021/10/23 09:34:52;;;;;;;4.53;1.90;;;;;;;10.93;55.34;98635.19;6198921;28;20193;-71
2021/10/23 09:37:59;;;;;;;9.87;2.23;;;;;;;11.48;54.46;98635.91;6197531;28;20281;-72
2021/10/23 09:41:25;;;;;;;3.37;1.87;;;;;;;11.30;52.79;98651.19;6202552;28;20212;-73
2021/10/23 09:44:27;;;;;;;4.10;1.63;;;;;;;11.28;54.16;98650.47;6202645;28;20193;-74
2021/10/23 09:47:40;;;;;;;4.30;1.90;;;;;;;11.31;53.59;98644.97;6200312;28;21018;-73
2021/10/23 09:50:42;;;;;;;5.17;1.60;;;;;;;11.53;53.73;98647.84;6201762;28;20205;-71
2021/10/23 09:53:55;;;;;;;3.00;1.40;;;;;;;11.88;53.40;98637.47;6203907;28;20332;-72
2021/10/23 09:56:58;;;;;;;3.00;1.80;;;;;;;11.93;51.69;98645.09;6203175;28;20206;-72
2021/10/23 10:00:05;;;;;;;3.73;1.97;;;;;;;11.66;52.51;98640.75;6203593;28;20287;-75
2021/10/23 10:03:13;;;;;;;2.17;1.57;;;;;;;12.02;52.18;98637.34;6204931;28;20197;-73
2021/10/23 10:06:15;;;;;;;2.47;1.50;;;;;;;12.42;51.55;98637.16;6203688;28;20329;-70
2021/10/23 10:09:21;;;;;;;7.27;2.00;;;;;;;12.87;50.45;98644.38;6205149;28;20200;-72
2021/10/23 10:12:23;;;;;;;6.97;3.13;;;;;;;12.84;50.72;98631.34;6187289;28;20205;-72
2021/10/23 10:15:26;;;;;;;7.37;2.07;;;;;;;13.04;49.40;98651.06;6206601;28;20288;-70
2021/10/23 10:18:29;;;;;;;3.60;1.77;;;;;;;13.20;47.48;98646.31;6204698;28;20929;-69
2021/10/23 10:21:34;;;;;;;3.80;1.40;;;;;;;13.20;47.51;98645.47;6207868;28;20631;-70
2021/10/23 10:24:38;;;;;;;3.60;1.70;;;;;;;13.37;48.86;98636.25;6202209;28;20206;-73
2021/10/23 10:27:45;;;;;;;3.13;1.80;;;;;;;13.81;46.89;98632.81;6198810;28;20282;-71
2021/10/23 10:30:53;;;;;;;4.10;1.83;;;;;;;14.23;47.35;98625.94;6188265;28;20207;-71
2021/10/23 10:33:57;;;;;;;5.60;1.87;;;;;;;14.19;46.12;98643.06;6200740;28;20186;-72
2021/10/23 10:44:31;;;;;;;3.43;1.67;;;;;;;14.38;46.72;98644.13;6203420;28;20249;-70
2021/10/23 10:48:12;;;;;;;9.10;2.37;;;;;;;14.14;45.17;98654.06;6197968;28;20450;-71
2021/10/23 10:51:17;;;;;;;3.10;1.77;;;;;;;12.87;49.43;98648.84;6204759;28;20188;-72
2021/10/23 10:54:19;;;;;;;4.37;1.90;;;;;;;12.27;50.33;98662.09;6186688;28;20547;-71
2021/10/23 10:58:00;;;;;;;3.50;1.50;;;;;;;12.14;51.74;98649.72;6206327;28;20250;-70
2021/10/23 11:01:01;;;;;;;2.93;1.80;;;;;;;12.61;51.08;98644.59;6202307;28;20235;-71
2021/10/23 11:04:09;;;;;;;3.13;1.50;;;;;;;13.34;49.38;98652.41;6201614;28;20965;-70
2021/10/23 11:07:11;;;;;;;2.57;1.50;;;;;;;13.39;48.73;98639.63;6203845;28;20275;-70
2021/10/23 11:10:52;;;;;;;2.67;1.50;;;;;;;13.55;47.63;98629.53;6184032;28;20192;-70
2021/10/23 11:14:00;;;;;;;4.70;1.90;;;;;;;13.55;47.16;98634.84;6201475;28;20186;-70
2021/10/23 11:17:05;;;;;;;3.33;2.10;;;;;;;13.72;47.09;98617.63;6205468;28;20287;-70
2021/10/23 11:20:11;;;;;;;2.50;1.23;;;;;;;14.07;46.56;98613.03;6205852;28;20226;-69
2021/10/23 11:23:20;;;;;;;3.00;1.57;;;;;;;14.56;45.07;98630.38;6198483;28;20565;-70
2021/10/23 11:26:22;;;;;;;3.27;1.43;;;;;;;14.77;44.38;98629.44;6205270;28;20197;-70
2021/10/23 11:29:27;;;;;;;1.87;1.53;;;;;;;14.97;43.70;98629.63;6202660;28;20582;-70
2021/10/23 11:32:29;;;;;;;1.90;1.10;;;;;;;14.96;42.95;98626.13;6181415;28;20193;-70
2021/10/23 11:35:39;;;;;;;2.33;1.50;;;;;;;15.40;43.20;98609.06;6205453;28;20193;-70
2021/10/23 11:38:41;;;;;;;2.67;1.27;;;;;;;15.80;42.43;98613.66;6205806;28;20395;-70
2021/10/23 11:41:43;;;;;;;1.80;1.00;;;;;;;15.90;41.89;98611.88;6200818;28;20943;-70
2021/10/23 11:44:45;;;;;;;2.80;1.23;;;;;;;16.28;41.88;98619.16;6196618;28;20212;-70
2021/10/23 11:47:50;;;;;;;3.23;1.30;;;;;;;16.62;40.98;98617.03;6200566;28;20263;-69
2021/10/23 11:50:55;;;;;;;5.13;1.77;;;;;;;16.80;39.64;98622.53;6200701;28;20185;-69
2021/10/23 11:54:05;;;;;;;2.70;1.40;;;;;;;16.29;39.75;98612.84;6195907;28;20312;-69
2021/10/23 11:57:07;;;;;;;2.27;1.50;;;;;;;16.30;40.30;98622.53;6195500;28;20292;-71
2021/10/23 12:00:17;;;;;;;4.00;1.57;;;;;;;15.38;41.47;98624.31;6198444;28;20213;-69
2021/10/23 12:03:29;;;;;;;4.77;1.50;;;;;;;14.42;44.22;98628.81;6199463;28;20489;-70
2021/10/23 12:06:39;;;;;;;5.00;1.60;;;;;;;15.20;42.52;98620.56;6209480;28;20189;-72
2021/10/23 12:09:41;;;;;;;3.00;1.47;;;;;;;16.28;41.81;98605.84;6209181;28;20230;-71
2021/10/23 12:12:43;;;;;;;6.27;1.70;;;;;;;17.01;40.31;98607.25;6209476;28;20191;-71
2021/10/23 12:16:07;;;;;;;1.87;1.20;;;;;;;17.33;38.06;98596.25;6203140;28;20205;-72
2021/10/23 12:19:15;;;;;;;5.47;1.40;;;;;;;17.37;38.88;98602.16;6203040;28;20213;-71
2021/10/23 12:22:17;;;;;;;1.20;1.10;;;;;;;17.53;38.13;98615.75;6203420;28;20649;-71
2021/10/23 12:25:29;;;;;;;3.60;1.20;;;;;;;17.19;38.41;98610.88;6194840;28;20606;-72
2021/10/23 12:29:05;;;;;;;1.80;0.90;;;;;;;17.45;37.73;98615.63;6206670;28;20804;-72
2021/10/23 12:32:13;;;;;;;2.00;1.17;;;;;;;17.47;37.22;98609.13;6181876;28;20193;-72
2021/10/23 12:36:14;;;;;;;1.33;1.00;;;;;;;17.62;37.82;98607.75;6125925;28;20215;-72
2021/10/23 12:39:22;;;;;;;1.63;1.07;;;;;;;17.76;36.89;98613.63;6121461;28;20231;-73
2021/10/23 12:42:24;;;;;;;1.53;1.00;;;;;;;16.72;39.25;98619.72;6118647;28;20200;-72
2021/10/23 12:45:30;;;;;;;1.40;1.10;;;;;;;15.72;40.68;98629.47;6122467;29;20666;-72
2021/10/23 12:48:32;;;;;;;1.70;1.30;;;;;;;14.97;42.20;98629.63;6117394;29;20656;-74
2021/10/23 12:51:34;;;;;;;3.10;1.23;;;;;;;14.35;43.40;98640.88;6123143;29;20254;-74
2021/10/23 12:54:36;;;;;;;2.83;1.53;;;;;;;14.21;44.38;98627.84;6110063;28;20210;-75
2021/10/23 12:57:38;;;;;;;2.27;1.40;;;;;;;14.84;42.45;98626.28;6126386;28;20795;-74
2021/10/23 13:00:42;;;;;;;3.10;1.60;;;;;;;15.63;41.40;98614.28;6109937;28;20215;-74
2021/10/23 13:03:44;;;;;;;4.17;1.70;;;;;;;16.06;39.98;98609.59;6133787;28;20199;-74
2021/10/23 13:06:46;;;;;;;2.70;1.33;;;;;;;16.05;40.68;98599.91;6129027;28;20776;-73
2021/10/23 13:09:48;;;;;;;2.60;1.30;;;;;;;16.50;40.63;98608.28;6121651;28;20664;-74
2021/10/23 13:12:50;;;;;;;3.40;1.27;;;;;;;17.87;37.48;98608.06;6160823;28;20268;-73
2021/10/23 13:15:52;;;;;;;2.13;1.13;;;;;;;19.33;34.16;98613.22;6189137;28;20247;-73
2021/10/23 13:18:58;;;;;;;2.87;1.40;;;;;;;19.89;33.08;98617.28;6196097;28;20200;-76
2021/10/23 13:22:01;;;;;;;2.77;1.17;;;;;;;20.20;32.02;98621.13;6178899;28;20287;-73
2021/10/23 13:25:04;;;;;;;2.83;1.30;;;;;;;19.54;32.86;98612.91;6196523;28;20198;-73
2021/10/23 13:28:34;;;;;;;2.80;1.23;;;;;;;17.23;37.19;98622.13;6199144;28;20200;-74
2021/10/23 13:49:08;;;;;;;1.83;1.20;;;;;;;13.11;46.13;98625.78;6204461;28;20633;-70
2021/10/23 13:52:10;;;;;;;2.47;1.30;;;;;;;12.69;47.10;98621.03;6204204;28;20204;-73
2021/10/23 14:09:57;;;;;;;4.37;1.50;;;;;;;11.89;47.96;98640.97;6201978;28;20223;-71
2021/10/23 14:12:59;;;;;;;4.93;1.80;;;;;;;11.92;48.03;98648.69;6193702;28;21043;-72
2021/10/23 14:16:01;;;;;;;3.47;1.40;;;;;;;11.95;47.63;98649.34;6196896;28;20210;-73
2021/10/23 14:20:09;;;;;;;2.17;1.40;;;;;;;11.83;47.45;98653.69;6183910;28;20342;-69
2021/10/23 14:23:18;;;;;;;1.10;1.00;;;;;;;11.45;47.54;98656.31;6202797;28;20203;-69
2021/10/23 14:26:22;;;;;;;1.83;1.47;;;;;;;11.27;48.15;98652.28;6204344;28;20278;-69
2021/10/23 14:29:26;;;;;;;3.97;1.77;;;;;;;11.27;48.46;98668.13;6413690;23;20190;-82
2021/10/23 14:32:29;;;;;;;2.23;1.20;;;;;;;11.17;49.14;98664.41;6207827;28;20302;-81
2021/10/23 14:35:31;;;;;;;1.60;1.50;;;;;;;11.11;49.36;98659.50;6202370;28;20207;-81
2021/10/23 14:42:39;;;;;;;2.43;1.37;;;;;;;11.03;50.41;98675.88;6135082;28;20614;-72
2021/10/23 14:45:42;;;;;;;3.50;1.60;;;;;;;11.04;50.34;98680.22;6140540;28;20248;-71
2021/10/23 14:48:44;;;;;;;1.87;1.50;;;;;;;10.98;49.99;98695.63;6139459;28;20697;-72
2021/10/23 14:56:41;;;;;;;3.33;1.80;;;;;;;10.93;50.52;98687.16;6139333;28;20222;-71
2021/10/23 14:59:43;;;;;;;3.93;2.40;;;;;;;10.88;51.02;98698.00;6139813;28;20219;-70
2021/10/23 15:02:45;;;;;;;2.07;1.73;;;;;;;10.73;51.62;98702.50;6136448;28;21079;-71
2021/10/23 15:05:47;;;;;;;3.93;2.40;;;;;;;10.65;52.06;98706.59;6138727;28;20274;-71
2021/10/23 15:08:49;;;;;;;1.70;1.50;;;;;;;10.55;52.40;98702.84;6141873;28;20660;-71
2021/10/23 15:11:51;;;;;;;1.70;1.43;;;;;;;10.47;53.21;98702.47;6139422;28;20314;-72
2021/10/23 15:14:53;;;;;;;3.83;1.80;;;;;;;10.45;52.82;98715.78;6139689;28;20208;-72
2021/10/23 15:17:56;;;;;;;3.87;2.23;;;;;;;10.42;53.12;98721.22;6143001;28;20231;-72
2021/10/23 15:20:58;;;;;;;2.77;1.60;;;;;;;10.41;53.29;98719.53;6122601;29;20219;-72
2021/10/23 15:24:01;;;;;;;4.87;2.10;;;;;;;10.33;53.47;98716.53;6137759;28;20305;-72